sensor_id;sensor_type;location;lat;lon;timestamp;P1;durP1;ratioP1;P2;durP2;ratioP2
58621;SDS011;44389;51.578;5.456;2022-11-11T00:01:40;55.03;;;25.55;;
58621;SDS011;44389;51.578;5.456;2022-11-11T00:04:05;54.80;;;25.45;;
58621;SDS011;44389;51.578;5.456;2022-11-11T00:06:31;58.38;;;26.52;;
58621;SDS011;44389;51.578;5.456;2022-11-11T00:08:56;58.90;;;27.55;;
58621;SDS011;44389;51.578;5.456;2022-11-11T00:11:21;58.25;;;28.15;;
58621;SDS011;44389;51.578;5.456;2022-11-11T00:13:46;56.50;;;29.48;;
58621;SDS011;44389;51.578;5.456;2022-11-11T00:16:13;55.03;;;30.48;;
58621;SDS011;44389;51.578;5.456;2022-11-11T00:18:41;61.30;;;29.48;;
58621;SDS011;44389;51.578;5.456;2022-11-11T00:21:25;57.00;;;29.48;;
58621;SDS011;44389;51.578;5.456;2022-11-11T00:27:05;64.53;;;30.17;;
58621;SDS011;44389;51.578;5.456;2022-11-11T00:29:31;65.15;;;31.83;;
58621;SDS011;44389;51.578;5.456;2022-11-11T00:31:56;62.28;;;31.45;;
58621;SDS011;44389;51.578;5.456;2022-11-11T00:34:40;71.28;;;35.45;;
58621;SDS011;44389;51.578;5.456;2022-11-11T00:37:25;63.40;;;33.88;;
58621;SDS011;44389;51.578;5.456;2022-11-11T00:39:50;64.32;;;33.38;;
58621;SDS011;44389;51.578;5.456;2022-11-11T00:42:16;63.35;;;34.55;;
58621;SDS011;44389;51.578;5.456;2022-11-11T00:44:41;69.80;;;34.80;;
58621;SDS011;44389;51.578;5.456;2022-11-11T00:47:06;77.78;;;36.55;;
58621;SDS011;44389;51.578;5.456;2022-11-11T00:49:51;67.25;;;35.95;;
58621;SDS011;44389;51.578;5.456;2022-11-11T00:52:35;66.00;;;35.40;;
58621;SDS011;44389;51.578;5.456;2022-11-11T00:55:00;70.75;;;37.55;;
58621;SDS011;44389;51.578;5.456;2022-11-11T00:57:25;69.90;;;35.40;;
58621;SDS011;44389;51.578;5.456;2022-11-11T00:59:51;64.63;;;34.90;;
58621;SDS011;44389;51.578;5.456;2022-11-11T01:02:16;72.85;;;37.50;;
58621;SDS011;44389;51.578;5.456;2022-11-11T01:04:41;68.57;;;36.20;;
58621;SDS011;44389;51.578;5.456;2022-11-11T01:07:06;71.85;;;37.50;;
58621;SDS011;44389;51.578;5.456;2022-11-11T01:09:32;72.75;;;34.92;;
58621;SDS011;44389;51.578;5.456;2022-11-11T01:11:57;84.22;;;36.65;;
58621;SDS011;44389;51.578;5.456;2022-11-11T01:14:22;67.70;;;35.38;;
58621;SDS011;44389;51.578;5.456;2022-11-11T01:16:48;66.60;;;36.00;;
58621;SDS011;44389;51.578;5.456;2022-11-11T01:19:13;73.25;;;36.80;;
58621;SDS011;44389;51.578;5.456;2022-11-11T01:21:38;76.38;;;36.30;;
58621;SDS011;44389;51.578;5.456;2022-11-11T01:24:04;78.18;;;37.70;;
58621;SDS011;44389;51.578;5.456;2022-11-11T01:26:29;67.85;;;36.45;;
58621;SDS011;44389;51.578;5.456;2022-11-11T01:28:55;71.97;;;36.95;;
58621;SDS011;44389;51.578;5.456;2022-11-11T01:31:21;74.82;;;37.17;;
58621;SDS011;44389;51.578;5.456;2022-11-11T01:33:48;74.85;;;36.97;;
58621;SDS011;44389;51.578;5.456;2022-11-11T01:36:17;75.30;;;36.95;;
58621;SDS011;44389;51.578;5.456;2022-11-11T01:38:47;76.40;;;37.28;;
58621;SDS011;44389;51.578;5.456;2022-11-11T01:41:16;69.53;;;37.17;;
58621;SDS011;44389;51.578;5.456;2022-11-11T01:44:01;71.55;;;37.30;;
58621;SDS011;44389;51.578;5.456;2022-11-11T01:46:48;66.90;;;35.42;;
58621;SDS011;44389;51.578;5.456;2022-11-11T01:49:29;69.13;;;36.47;;
58621;SDS011;44389;51.578;5.456;2022-11-11T01:54:44;66.10;;;35.80;;
58621;SDS011;44389;51.578;5.456;2022-11-11T01:57:19;68.10;;;35.88;;
58621;SDS011;44389;51.578;5.456;2022-11-11T01:59:49;76.63;;;37.92;;
58621;SDS011;44389;51.578;5.456;2022-11-11T02:02:44;76.88;;;39.53;;
58621;SDS011;44389;51.578;5.456;2022-11-11T02:05:13;78.20;;;38.70;;
58621;SDS011;44389;51.578;5.456;2022-11-11T02:07:59;76.40;;;37.55;;
58621;SDS011;44389;51.578;5.456;2022-11-11T02:10:31;68.90;;;36.78;;
58621;SDS011;44389;51.578;5.456;2022-11-11T02:12:58;68.95;;;36.50;;
58621;SDS011;44389;51.578;5.456;2022-11-11T02:15:42;75.85;;;37.13;;
58621;SDS011;44389;51.578;5.456;2022-11-11T02:18:08;80.22;;;38.47;;
58621;SDS011;44389;51.578;5.456;2022-11-11T02:20:34;72.47;;;37.15;;
58621;SDS011;44389;51.578;5.456;2022-11-11T02:25:50;80.70;;;40.03;;
58621;SDS011;44389;51.578;5.456;2022-11-11T02:28:19;76.72;;;36.90;;
58621;SDS011;44389;51.578;5.456;2022-11-11T02:30:45;77.50;;;38.75;;
58621;SDS011;44389;51.578;5.456;2022-11-11T02:33:11;83.65;;;38.45;;
58621;SDS011;44389;51.578;5.456;2022-11-11T02:35:37;75.93;;;37.10;;
58621;SDS011;44389;51.578;5.456;2022-11-11T02:38:07;79.40;;;37.90;;
58621;SDS011;44389;51.578;5.456;2022-11-11T02:40:44;74.18;;;36.53;;
58621;SDS011;44389;51.578;5.456;2022-11-11T02:43:28;82.65;;;38.38;;
58621;SDS011;44389;51.578;5.456;2022-11-11T02:45:55;76.15;;;37.90;;
58621;SDS011;44389;51.578;5.456;2022-11-11T02:48:21;84.22;;;37.17;;
58621;SDS011;44389;51.578;5.456;2022-11-11T02:50:47;78.47;;;37.22;;
58621;SDS011;44389;51.578;5.456;2022-11-11T02:53:12;88.13;;;40.10;;
58621;SDS011;44389;51.578;5.456;2022-11-11T02:55:38;81.35;;;36.83;;
58621;SDS011;44389;51.578;5.456;2022-11-11T02:58:03;80.95;;;36.33;;
58621;SDS011;44389;51.578;5.456;2022-11-11T03:00:28;71.70;;;36.22;;
58621;SDS011;44389;51.578;5.456;2022-11-11T03:02:54;79.85;;;36.97;;
58621;SDS011;44389;51.578;5.456;2022-11-11T03:05:19;72.60;;;34.67;;
58621;SDS011;44389;51.578;5.456;2022-11-11T03:07:45;70.05;;;36.03;;
58621;SDS011;44389;51.578;5.456;2022-11-11T03:10:10;71.55;;;35.38;;
58621;SDS011;44389;51.578;5.456;2022-11-11T03:12:35;76.75;;;36.28;;
58621;SDS011;44389;51.578;5.456;2022-11-11T03:15:01;66.72;;;32.95;;
58621;SDS011;44389;51.578;5.456;2022-11-11T03:17:26;70.10;;;33.55;;
58621;SDS011;44389;51.578;5.456;2022-11-11T03:20:07;73.38;;;34.03;;
58621;SDS011;44389;51.578;5.456;2022-11-11T03:23:00;65.55;;;33.53;;
58621;SDS011;44389;51.578;5.456;2022-11-11T03:25:40;63.28;;;32.90;;
58621;SDS011;44389;51.578;5.456;2022-11-11T03:28:15;67.05;;;33.40;;
58621;SDS011;44389;51.578;5.456;2022-11-11T03:30:43;73.57;;;33.00;;
58621;SDS011;44389;51.578;5.456;2022-11-11T03:35:35;67.55;;;33.28;;
58621;SDS011;44389;51.578;5.456;2022-11-11T03:38:01;65.18;;;31.98;;
58621;SDS011;44389;51.578;5.456;2022-11-11T03:40:43;60.08;;;31.50;;
58621;SDS011;44389;51.578;5.456;2022-11-11T03:43:10;63.78;;;31.52;;
58621;SDS011;44389;51.578;5.456;2022-11-11T03:45:39;64.75;;;33.72;;
58621;SDS011;44389;51.578;5.456;2022-11-11T03:48:05;64.50;;;30.88;;
58621;SDS011;44389;51.578;5.456;2022-11-11T03:50:31;61.17;;;30.50;;
58621;SDS011;44389;51.578;5.456;2022-11-11T03:52:57;73.18;;;33.03;;
58621;SDS011;44389;51.578;5.456;2022-11-11T03:55:22;66.82;;;32.80;;
58621;SDS011;44389;51.578;5.456;2022-11-11T03:57:48;64.50;;;31.60;;
58621;SDS011;44389;51.578;5.456;2022-11-11T04:00:14;67.63;;;31.60;;
58621;SDS011;44389;51.578;5.456;2022-11-11T04:05:25;64.38;;;31.20;;
58621;SDS011;44389;51.578;5.456;2022-11-11T04:08:12;68.38;;;31.10;;
58621;SDS011;44389;51.578;5.456;2022-11-11T04:10:59;69.00;;;29.98;;
58621;SDS011;44389;51.578;5.456;2022-11-11T04:13:27;75.95;;;32.47;;
58621;SDS011;44389;51.578;5.456;2022-11-11T04:16:13;69.80;;;33.85;;
58621;SDS011;44389;51.578;5.456;2022-11-11T04:18:38;71.70;;;31.95;;
58621;SDS011;44389;51.578;5.456;2022-11-11T04:21:22;64.38;;;31.50;;
58621;SDS011;44389;51.578;5.456;2022-11-11T04:24:07;72.85;;;33.22;;
58621;SDS011;44389;51.578;5.456;2022-11-11T04:27:13;66.95;;;31.27;;
58621;SDS011;44389;51.578;5.456;2022-11-11T04:29:40;61.25;;;32.22;;
58621;SDS011;44389;51.578;5.456;2022-11-11T04:34:54;65.20;;;32.65;;
58621;SDS011;44389;51.578;5.456;2022-11-11T04:37:21;68.53;;;32.85;;
58621;SDS011;44389;51.578;5.456;2022-11-11T04:39:48;64.82;;;30.40;;
58621;SDS011;44389;51.578;5.456;2022-11-11T04:42:32;71.57;;;31.95;;
58621;SDS011;44389;51.578;5.456;2022-11-11T04:44:59;61.78;;;30.73;;
58621;SDS011;44389;51.578;5.456;2022-11-11T04:50:18;74.13;;;32.47;;
58621;SDS011;44389;51.578;5.456;2022-11-11T04:52:44;76.20;;;32.53;;
58621;SDS011;44389;51.578;5.456;2022-11-11T04:55:09;67.07;;;32.33;;
58621;SDS011;44389;51.578;5.456;2022-11-11T04:57:53;68.22;;;32.58;;
58621;SDS011;44389;51.578;5.456;2022-11-11T05:00:18;69.72;;;32.00;;
58621;SDS011;44389;51.578;5.456;2022-11-11T05:02:44;70.80;;;32.80;;
58621;SDS011;44389;51.578;5.456;2022-11-11T05:05:28;69.65;;;33.67;;
58621;SDS011;44389;51.578;5.456;2022-11-11T05:08:17;78.00;;;34.53;;
58621;SDS011;44389;51.578;5.456;2022-11-11T05:11:01;70.38;;;31.65;;
58621;SDS011;44389;51.578;5.456;2022-11-11T05:13:27;70.78;;;34.33;;
58621;SDS011;44389;51.578;5.456;2022-11-11T05:16:18;67.93;;;32.38;;
58621;SDS011;44389;51.578;5.456;2022-11-11T05:19:04;68.90;;;32.63;;
58621;SDS011;44389;51.578;5.456;2022-11-11T05:21:48;61.92;;;31.77;;
58621;SDS011;44389;51.578;5.456;2022-11-11T05:24:17;65.22;;;31.90;;
58621;SDS011;44389;51.578;5.456;2022-11-11T05:27:01;76.93;;;32.92;;
58621;SDS011;44389;51.578;5.456;2022-11-11T05:29:26;68.07;;;32.95;;
58621;SDS011;44389;51.578;5.456;2022-11-11T05:31:51;68.22;;;32.90;;
58621;SDS011;44389;51.578;5.456;2022-11-11T05:34:16;71.05;;;32.90;;
58621;SDS011;44389;51.578;5.456;2022-11-11T05:36:42;63.33;;;31.13;;
58621;SDS011;44389;51.578;5.456;2022-11-11T05:39:07;73.90;;;32.33;;
58621;SDS011;44389;51.578;5.456;2022-11-11T05:41:32;71.32;;;33.15;;
58621;SDS011;44389;51.578;5.456;2022-11-11T05:43:57;67.20;;;32.20;;
58621;SDS011;44389;51.578;5.456;2022-11-11T05:46:23;66.68;;;32.13;;
58621;SDS011;44389;51.578;5.456;2022-11-11T05:48:48;66.07;;;30.60;;
58621;SDS011;44389;51.578;5.456;2022-11-11T05:51:32;67.03;;;32.85;;
58621;SDS011;44389;51.578;5.456;2022-11-11T05:53:57;62.60;;;30.92;;
58621;SDS011;44389;51.578;5.456;2022-11-11T05:56:22;67.20;;;32.17;;
58621;SDS011;44389;51.578;5.456;2022-11-11T05:58:47;58.05;;;30.27;;
58621;SDS011;44389;51.578;5.456;2022-11-11T06:01:13;67.70;;;31.20;;
58621;SDS011;44389;51.578;5.456;2022-11-11T06:03:38;62.88;;;32.10;;
58621;SDS011;44389;51.578;5.456;2022-11-11T06:06:03;66.15;;;32.97;;
58621;SDS011;44389;51.578;5.456;2022-11-11T06:08:29;64.63;;;32.38;;
58621;SDS011;44389;51.578;5.456;2022-11-11T06:10:54;64.35;;;32.67;;
58621;SDS011;44389;51.578;5.456;2022-11-11T06:13:19;66.18;;;33.70;;
58621;SDS011;44389;51.578;5.456;2022-11-11T06:15:45;68.15;;;33.88;;
58621;SDS011;44389;51.578;5.456;2022-11-11T06:18:10;67.28;;;33.72;;
58621;SDS011;44389;51.578;5.456;2022-11-11T06:20:35;71.07;;;32.95;;
58621;SDS011;44389;51.578;5.456;2022-11-11T06:23:01;73.45;;;34.05;;
58621;SDS011;44389;51.578;5.456;2022-11-11T06:25:28;68.57;;;33.17;;
58621;SDS011;44389;51.578;5.456;2022-11-11T06:28:15;65.55;;;32.33;;
58621;SDS011;44389;51.578;5.456;2022-11-11T06:30:41;60.20;;;32.80;;
58621;SDS011;44389;51.578;5.456;2022-11-11T06:33:06;71.05;;;35.50;;
58621;SDS011;44389;51.578;5.456;2022-11-11T06:35:35;63.38;;;34.72;;
58621;SDS011;44389;51.578;5.456;2022-11-11T06:38:02;70.20;;;34.83;;
58621;SDS011;44389;51.578;5.456;2022-11-11T06:40:29;74.20;;;35.67;;
58621;SDS011;44389;51.578;5.456;2022-11-11T06:42:55;64.75;;;33.72;;
58621;SDS011;44389;51.578;5.456;2022-11-11T06:45:24;72.10;;;33.05;;
58621;SDS011;44389;51.578;5.456;2022-11-11T06:47:53;71.15;;;34.13;;
58621;SDS011;44389;51.578;5.456;2022-11-11T06:50:19;67.05;;;34.72;;
58621;SDS011;44389;51.578;5.456;2022-11-11T06:52:45;72.07;;;34.35;;
58621;SDS011;44389;51.578;5.456;2022-11-11T06:55:10;70.70;;;35.25;;
58621;SDS011;44389;51.578;5.456;2022-11-11T06:57:36;70.50;;;35.58;;
58621;SDS011;44389;51.578;5.456;2022-11-11T07:00:05;73.78;;;37.08;;
58621;SDS011;44389;51.578;5.456;2022-11-11T07:02:31;69.47;;;36.03;;
58621;SDS011;44389;51.578;5.456;2022-11-11T07:04:57;74.13;;;35.85;;
58621;SDS011;44389;51.578;5.456;2022-11-11T07:07:23;71.07;;;33.80;;
58621;SDS011;44389;51.578;5.456;2022-11-11T07:09:48;72.65;;;36.00;;
58621;SDS011;44389;51.578;5.456;2022-11-11T07:12:13;76.97;;;35.72;;
58621;SDS011;44389;51.578;5.456;2022-11-11T07:14:39;71.07;;;35.88;;
58621;SDS011;44389;51.578;5.456;2022-11-11T07:17:04;71.82;;;35.33;;
58621;SDS011;44389;51.578;5.456;2022-11-11T07:19:29;73.22;;;33.33;;
58621;SDS011;44389;51.578;5.456;2022-11-11T07:21:55;75.00;;;34.35;;
58621;SDS011;44389;51.578;5.456;2022-11-11T07:24:20;67.35;;;33.05;;
58621;SDS011;44389;51.578;5.456;2022-11-11T07:26:45;67.28;;;32.50;;
58621;SDS011;44389;51.578;5.456;2022-11-11T07:29:11;68.13;;;31.15;;
58621;SDS011;44389;51.578;5.456;2022-11-11T07:31:38;69.53;;;33.25;;
58621;SDS011;44389;51.578;5.456;2022-11-11T07:34:03;70.47;;;32.83;;
58621;SDS011;44389;51.578;5.456;2022-11-11T07:36:28;65.63;;;30.98;;
58621;SDS011;44389;51.578;5.456;2022-11-11T07:38:54;75.07;;;33.22;;
58621;SDS011;44389;51.578;5.456;2022-11-11T07:41:19;70.68;;;33.20;;
58621;SDS011;44389;51.578;5.456;2022-11-11T07:43:44;62.33;;;32.47;;
58621;SDS011;44389;51.578;5.456;2022-11-11T07:46:10;65.00;;;31.10;;
58621;SDS011;44389;51.578;5.456;2022-11-11T07:48:35;63.45;;;31.63;;
58621;SDS011;44389;51.578;5.456;2022-11-11T07:51:00;64.55;;;32.15;;
58621;SDS011;44389;51.578;5.456;2022-11-11T07:53:25;78.53;;;33.33;;
58621;SDS011;44389;51.578;5.456;2022-11-11T07:55:52;64.03;;;31.90;;
58621;SDS011;44389;51.578;5.456;2022-11-11T07:58:18;64.50;;;30.63;;
58621;SDS011;44389;51.578;5.456;2022-11-11T08:00:43;72.78;;;31.42;;
58621;SDS011;44389;51.578;5.456;2022-11-11T08:03:08;69.45;;;31.58;;
58621;SDS011;44389;51.578;5.456;2022-11-11T08:05:33;71.82;;;30.35;;
58621;SDS011;44389;51.578;5.456;2022-11-11T08:08:02;70.78;;;31.77;;
58621;SDS011;44389;51.578;5.456;2022-11-11T08:10:29;65.20;;;32.08;;
58621;SDS011;44389;51.578;5.456;2022-11-11T08:12:54;68.30;;;30.92;;
58621;SDS011;44389;51.578;5.456;2022-11-11T08:15:38;66.20;;;31.90;;
58621;SDS011;44389;51.578;5.456;2022-11-11T08:18:04;65.20;;;31.40;;
58621;SDS011;44389;51.578;5.456;2022-11-11T08:20:29;70.38;;;33.08;;
58621;SDS011;44389;51.578;5.456;2022-11-11T08:22:54;66.63;;;31.65;;
58621;SDS011;44389;51.578;5.456;2022-11-11T08:27:47;61.08;;;29.50;;
58621;SDS011;44389;51.578;5.456;2022-11-11T08:30:13;59.60;;;30.80;;
58621;SDS011;44389;51.578;5.456;2022-11-11T08:32:39;59.47;;;29.73;;
58621;SDS011;44389;51.578;5.456;2022-11-11T08:35:04;66.43;;;29.63;;
58621;SDS011;44389;51.578;5.456;2022-11-11T08:37:30;62.92;;;31.15;;
58621;SDS011;44389;51.578;5.456;2022-11-11T08:39:55;64.75;;;31.40;;
58621;SDS011;44389;51.578;5.456;2022-11-11T08:42:21;60.75;;;31.23;;
58621;SDS011;44389;51.578;5.456;2022-11-11T08:44:47;57.72;;;29.10;;
58621;SDS011;44389;51.578;5.456;2022-11-11T08:47:12;55.03;;;29.27;;
58621;SDS011;44389;51.578;5.456;2022-11-11T08:49:37;59.22;;;28.92;;
58621;SDS011;44389;51.578;5.456;2022-11-11T08:52:03;57.03;;;29.08;;
58621;SDS011;44389;51.578;5.456;2022-11-11T08:54:28;55.33;;;28.40;;
58621;SDS011;44389;51.578;5.456;2022-11-11T08:56:54;55.95;;;28.05;;
58621;SDS011;44389;51.578;5.456;2022-11-11T08:59:19;56.78;;;27.75;;
58621;SDS011;44389;51.578;5.456;2022-11-11T09:01:45;53.35;;;27.50;;
58621;SDS011;44389;51.578;5.456;2022-11-11T09:04:10;51.80;;;26.50;;
58621;SDS011;44389;51.578;5.456;2022-11-11T09:06:35;52.67;;;26.73;;
58621;SDS011;44389;51.578;5.456;2022-11-11T09:09:00;52.45;;;25.13;;
58621;SDS011;44389;51.578;5.456;2022-11-11T09:11:26;47.90;;;25.20;;
58621;SDS011;44389;51.578;5.456;2022-11-11T09:13:52;48.28;;;24.98;;
58621;SDS011;44389;51.578;5.456;2022-11-11T09:16:17;45.80;;;25.45;;
58621;SDS011;44389;51.578;5.456;2022-11-11T09:18:42;47.13;;;24.65;;
58621;SDS011;44389;51.578;5.456;2022-11-11T09:21:08;46.33;;;23.67;;
58621;SDS011;44389;51.578;5.456;2022-11-11T09:23:33;42.90;;;23.73;;
58621;SDS011;44389;51.578;5.456;2022-11-11T09:25:59;45.30;;;23.23;;
58621;SDS011;44389;51.578;5.456;2022-11-11T09:28:28;43.35;;;22.48;;
58621;SDS011;44389;51.578;5.456;2022-11-11T09:30:54;38.13;;;22.30;;
58621;SDS011;44389;51.578;5.456;2022-11-11T09:33:19;38.58;;;21.23;;
58621;SDS011;44389;51.578;5.456;2022-11-11T09:35:44;42.88;;;21.65;;
58621;SDS011;44389;51.578;5.456;2022-11-11T09:38:09;39.95;;;21.88;;
58621;SDS011;44389;51.578;5.456;2022-11-11T09:40:43;39.05;;;21.48;;
58621;SDS011;44389;51.578;5.456;2022-11-11T09:51:14;35.65;;;19.35;;
58621;SDS011;44389;51.578;5.456;2022-11-11T09:53:44;34.83;;;19.63;;
58621;SDS011;44389;51.578;5.456;2022-11-11T09:56:16;38.45;;;20.42;;
58621;SDS011;44389;51.578;5.456;2022-11-11T09:58:45;35.35;;;19.20;;
58621;SDS011;44389;51.578;5.456;2022-11-11T10:01:19;38.72;;;19.60;;
58621;SDS011;44389;51.578;5.456;2022-11-11T10:03:51;39.13;;;19.60;;
58621;SDS011;44389;51.578;5.456;2022-11-11T10:06:29;32.90;;;18.17;;
58621;SDS011;44389;51.578;5.456;2022-11-11T10:08:57;36.58;;;19.35;;
58621;SDS011;44389;51.578;5.456;2022-11-11T10:14:33;35.22;;;18.50;;
58621;SDS011;44389;51.578;5.456;2022-11-11T10:22:19;36.58;;;17.98;;
58621;SDS011;44389;51.578;5.456;2022-11-11T10:27:36;36.63;;;17.42;;
58621;SDS011;44389;51.578;5.456;2022-11-11T10:33:04;34.47;;;16.92;;
58621;SDS011;44389;51.578;5.456;2022-11-11T10:35:36;33.17;;;16.85;;
58621;SDS011;44389;51.578;5.456;2022-11-11T10:38:11;32.42;;;15.90;;
58621;SDS011;44389;51.578;5.456;2022-11-11T10:40:46;34.97;;;16.13;;
58621;SDS011;44389;51.578;5.456;2022-11-11T10:46:00;31.65;;;15.68;;
58621;SDS011;44389;51.578;5.456;2022-11-11T10:48:34;28.75;;;15.57;;
58621;SDS011;44389;51.578;5.456;2022-11-11T10:51:05;25.40;;;14.70;;
58621;SDS011;44389;51.578;5.456;2022-11-11T10:53:42;32.95;;;15.55;;
58621;SDS011;44389;51.578;5.456;2022-11-11T10:56:32;29.90;;;15.40;;
58621;SDS011;44389;51.578;5.456;2022-11-11T11:01:53;27.38;;;13.70;;
58621;SDS011;44389;51.578;5.456;2022-11-11T11:04:30;26.77;;;14.60;;
58621;SDS011;44389;51.578;5.456;2022-11-11T11:07:01;27.00;;;13.00;;
58621;SDS011;44389;51.578;5.456;2022-11-11T11:11:58;21.05;;;12.32;;
58621;SDS011;44389;51.578;5.456;2022-11-11T11:14:33;28.05;;;12.95;;
58621;SDS011;44389;51.578;5.456;2022-11-11T11:17:08;28.15;;;12.50;;
58621;SDS011;44389;51.578;5.456;2022-11-11T11:19:39;25.38;;;11.60;;
58621;SDS011;44389;51.578;5.456;2022-11-11T11:22:04;20.67;;;10.85;;
58621;SDS011;44389;51.578;5.456;2022-11-11T11:24:31;25.67;;;11.90;;
58621;SDS011;44389;51.578;5.456;2022-11-11T11:27:05;22.45;;;11.68;;
58621;SDS011;44389;51.578;5.456;2022-11-11T11:29:39;19.05;;;10.10;;
58621;SDS011;44389;51.578;5.456;2022-11-11T11:34:41;20.45;;;9.93;;
58621;SDS011;44389;51.578;5.456;2022-11-11T11:37:11;20.48;;;8.98;;
58621;SDS011;44389;51.578;5.456;2022-11-11T11:39:37;21.65;;;9.13;;
58621;SDS011;44389;51.578;5.456;2022-11-11T11:42:04;20.63;;;9.23;;
58621;SDS011;44389;51.578;5.456;2022-11-11T11:44:30;18.45;;;8.48;;
58621;SDS011;44389;51.578;5.456;2022-11-11T11:50:45;16.52;;;8.65;;
58621;SDS011;44389;51.578;5.456;2022-11-11T11:55:31;19.92;;;7.95;;
58621;SDS011;44389;51.578;5.456;2022-11-11T12:00:46;16.80;;;6.60;;
58621;SDS011;44389;51.578;5.456;2022-11-11T12:06:35;12.23;;;5.95;;
58621;SDS011;44389;51.578;5.456;2022-11-11T12:12:28;15.40;;;6.28;;
58621;SDS011;44389;51.578;5.456;2022-11-11T12:20:42;14.18;;;5.82;;
58621;SDS011;44389;51.578;5.456;2022-11-11T12:26:17;7.75;;;4.43;;
58621;SDS011;44389;51.578;5.456;2022-11-11T12:31:39;13.63;;;4.75;;
58621;SDS011;44389;51.578;5.456;2022-11-11T12:45:39;12.75;;;4.93;;
58621;SDS011;44389;51.578;5.456;2022-11-11T12:50:47;11.65;;;4.05;;
58621;SDS011;44389;51.578;5.456;2022-11-11T12:53:28;10.43;;;4.03;;
58621;SDS011;44389;51.578;5.456;2022-11-11T12:58:47;9.27;;;4.10;;
58621;SDS011;44389;51.578;5.456;2022-11-11T13:01:48;11.18;;;4.45;;
58621;SDS011;44389;51.578;5.456;2022-11-11T13:04:32;10.60;;;4.45;;
58621;SDS011;44389;51.578;5.456;2022-11-11T13:07:16;11.33;;;4.27;;
58621;SDS011;44389;51.578;5.456;2022-11-11T13:10:07;9.10;;;3.50;;
58621;SDS011;44389;51.578;5.456;2022-11-11T13:16:14;9.20;;;3.45;;
58621;SDS011;44389;51.578;5.456;2022-11-11T13:18:46;7.90;;;3.60;;
58621;SDS011;44389;51.578;5.456;2022-11-11T13:21:22;8.50;;;3.63;;
58621;SDS011;44389;51.578;5.456;2022-11-11T13:23:54;10.52;;;3.90;;
58621;SDS011;44389;51.578;5.456;2022-11-11T13:26:27;10.45;;;4.38;;
58621;SDS011;44389;51.578;5.456;2022-11-11T13:31:58;15.27;;;4.53;;
58621;SDS011;44389;51.578;5.456;2022-11-11T13:34:28;11.30;;;4.68;;
58621;SDS011;44389;51.578;5.456;2022-11-11T13:36:58;13.65;;;4.28;;
58621;SDS011;44389;51.578;5.456;2022-11-11T13:39:29;11.75;;;5.00;;
58621;SDS011;44389;51.578;5.456;2022-11-11T13:41:58;14.63;;;4.65;;
58621;SDS011;44389;51.578;5.456;2022-11-11T13:44:26;17.57;;;5.07;;
58621;SDS011;44389;51.578;5.456;2022-11-11T13:47:37;11.15;;;5.07;;
58621;SDS011;44389;51.578;5.456;2022-11-11T13:49:54;14.50;;;5.95;;
58621;SDS011;44389;51.578;5.456;2022-11-11T13:52:24;10.52;;;5.00;;
58621;SDS011;44389;51.578;5.456;2022-11-11T13:55:02;13.55;;;5.13;;
58621;SDS011;44389;51.578;5.456;2022-11-11T13:57:32;14.35;;;5.28;;
58621;SDS011;44389;51.578;5.456;2022-11-11T14:00:42;11.82;;;4.28;;
58621;SDS011;44389;51.578;5.456;2022-11-11T14:05:46;12.45;;;5.50;;
58621;SDS011;44389;51.578;5.456;2022-11-11T14:13:50;17.88;;;5.88;;
58621;SDS011;44389;51.578;5.456;2022-11-11T14:19:41;15.98;;;6.10;;
58621;SDS011;44389;51.578;5.456;2022-11-11T14:24:22;13.07;;;6.32;;
58621;SDS011;44389;51.578;5.456;2022-11-11T14:29:36;18.37;;;6.73;;
58621;SDS011;44389;51.578;5.456;2022-11-11T14:32:27;15.82;;;5.63;;
58621;SDS011;44389;51.578;5.456;2022-11-11T14:37:55;18.33;;;6.20;;
58621;SDS011;44389;51.578;5.456;2022-11-11T14:40:25;15.93;;;6.13;;
58621;SDS011;44389;51.578;5.456;2022-11-11T14:42:53;19.58;;;6.43;;
58621;SDS011;44389;51.578;5.456;2022-11-11T14:47:47;15.05;;;6.55;;
58621;SDS011;44389;51.578;5.456;2022-11-11T14:52:57;14.32;;;6.68;;
58621;SDS011;44389;51.578;5.456;2022-11-11T14:55:27;21.35;;;7.05;;
58621;SDS011;44389;51.578;5.456;2022-11-11T15:00:23;20.42;;;8.55;;
58621;SDS011;44389;51.578;5.456;2022-11-11T15:03:02;19.23;;;8.57;;
58621;SDS011;44389;51.578;5.456;2022-11-11T15:08:21;25.38;;;8.48;;
58621;SDS011;44389;51.578;5.456;2022-11-11T15:16:09;19.73;;;7.15;;
58621;SDS011;44389;51.578;5.456;2022-11-11T15:19:15;15.05;;;6.95;;
58621;SDS011;44389;51.578;5.456;2022-11-11T15:29:46;20.02;;;7.78;;
58621;SDS011;44389;51.578;5.456;2022-11-11T15:38:01;17.75;;;7.07;;
58621;SDS011;44389;51.578;5.456;2022-11-11T15:42:57;15.18;;;6.75;;
58621;SDS011;44389;51.578;5.456;2022-11-11T15:45:24;18.25;;;7.90;;
58621;SDS011;44389;51.578;5.456;2022-11-11T15:47:58;24.23;;;10.52;;
58621;SDS011;44389;51.578;5.456;2022-11-11T15:52:53;20.83;;;9.40;;
58621;SDS011;44389;51.578;5.456;2022-11-11T15:55:24;34.25;;;12.75;;
58621;SDS011;44389;51.578;5.456;2022-11-11T15:57:52;21.60;;;8.30;;
58621;SDS011;44389;51.578;5.456;2022-11-11T16:02:48;20.65;;;9.20;;
58621;SDS011;44389;51.578;5.456;2022-11-11T16:05:19;23.08;;;10.02;;
58621;SDS011;44389;51.578;5.456;2022-11-11T16:07:52;22.08;;;9.20;;
58621;SDS011;44389;51.578;5.456;2022-11-11T16:10:24;22.50;;;11.15;;
58621;SDS011;44389;51.578;5.456;2022-11-11T16:12:54;27.23;;;12.82;;
58621;SDS011;44389;51.578;5.456;2022-11-11T16:15:25;30.55;;;13.80;;
58621;SDS011;44389;51.578;5.456;2022-11-11T16:17:59;31.65;;;13.63;;
58621;SDS011;44389;51.578;5.456;2022-11-11T16:20:29;31.45;;;15.07;;
58621;SDS011;44389;51.578;5.456;2022-11-11T16:23:03;30.10;;;15.70;;
58621;SDS011;44389;51.578;5.456;2022-11-11T16:25:31;30.05;;;15.23;;
58621;SDS011;44389;51.578;5.456;2022-11-11T16:27:57;38.35;;;15.18;;
58621;SDS011;44389;51.578;5.456;2022-11-11T16:30:33;41.53;;;16.58;;
58621;SDS011;44389;51.578;5.456;2022-11-11T16:33:00;34.95;;;15.43;;
58621;SDS011;44389;51.578;5.456;2022-11-11T16:35:35;34.17;;;15.07;;
58621;SDS011;44389;51.578;5.456;2022-11-11T16:43:10;31.38;;;15.98;;
58621;SDS011;44389;51.578;5.456;2022-11-11T16:45:36;33.13;;;16.13;;
58621;SDS011;44389;51.578;5.456;2022-11-11T16:48:56;36.67;;;15.68;;
58621;SDS011;44389;51.578;5.456;2022-11-11T16:51:06;38.28;;;16.90;;
58621;SDS011;44389;51.578;5.456;2022-11-11T16:53:34;35.25;;;18.13;;
58621;SDS011;44389;51.578;5.456;2022-11-11T16:56:04;40.33;;;18.33;;
58621;SDS011;44389;51.578;5.456;2022-11-11T16:58:31;42.65;;;17.75;;
58621;SDS011;44389;51.578;5.456;2022-11-11T17:01:03;40.97;;;18.73;;
58621;SDS011;44389;51.578;5.456;2022-11-11T17:03:29;39.00;;;20.48;;
58621;SDS011;44389;51.578;5.456;2022-11-11T17:05:55;44.22;;;25.55;;
58621;SDS011;44389;51.578;5.456;2022-11-11T17:08:30;47.70;;;26.20;;
58621;SDS011;44389;51.578;5.456;2022-11-11T17:11:03;52.90;;;25.58;;
58621;SDS011;44389;51.578;5.456;2022-11-11T17:13:33;49.58;;;24.58;;
58621;SDS011;44389;51.578;5.456;2022-11-11T17:16:00;49.00;;;24.23;;
58621;SDS011;44389;51.578;5.456;2022-11-11T17:18:32;45.30;;;22.70;;
58621;SDS011;44389;51.578;5.456;2022-11-11T17:20:59;42.53;;;22.50;;
58621;SDS011;44389;51.578;5.456;2022-11-11T17:23:25;47.38;;;23.58;;
58621;SDS011;44389;51.578;5.456;2022-11-11T17:25:57;48.40;;;23.42;;
58621;SDS011;44389;51.578;5.456;2022-11-11T17:28:29;48.10;;;24.30;;